createdAt,value
2016-08-05T00:00:45.463Z,0
2016-08-05T00:01:45.451Z,0
2016-08-05T00:02:45.441Z,0
2016-08-05T00:03:45.421Z,0
2016-08-05T00:04:45.412Z,0
2016-08-05T00:05:45.441Z,0
2016-08-05T00:06:45.414Z,0
2016-08-05T00:07:45.376Z,0
2016-08-05T00:08:45.404Z,0
2016-08-05T00:09:45.376Z,0
2016-08-05T00:10:45.373Z,0
2016-08-05T00:11:45.335Z,0
2016-08-05T00:12:45.333Z,0
2016-08-05T00:13:45.337Z,0
2016-08-05T00:14:45.323Z,0
2016-08-05T00:15:45.291Z,0
2016-08-05T00:16:45.321Z,0
2016-08-05T00:17:45.323Z,0
2016-08-05T00:18:45.300Z,0
2016-08-05T00:20:45.272Z,0
2016-08-05T00:21:45.265Z,0
2016-08-05T00:22:45.243Z,0
2016-08-05T00:23:45.227Z,0
2016-08-05T00:24:45.213Z,0
2016-08-05T00:25:45.210Z,0
2016-08-05T00:26:45.203Z,0
2016-08-05T00:27:45.208Z,0
2016-08-05T00:28:45.159Z,0
2016-08-05T00:29:45.169Z,0
2016-08-05T00:30:45.176Z,0
2016-08-05T00:31:45.140Z,0
2016-08-05T00:32:45.159Z,0
2016-08-05T00:33:45.134Z,0
2016-08-05T00:34:45.116Z,0
2016-08-05T00:35:45.121Z,0
2016-08-05T00:36:45.101Z,0
2016-08-05T00:37:45.093Z,0
2016-08-05T00:38:45.098Z,0
2016-08-05T00:39:45.086Z,0
2016-08-05T00:40:45.053Z,0
2016-08-05T00:41:45.049Z,0
2016-08-05T00:42:45.051Z,0
2016-08-05T00:43:45.028Z,0
2016-08-05T00:44:45.037Z,0
2016-08-05T00:45:45.008Z,0
2016-08-05T00:46:44.982Z,0
2016-08-05T00:47:45.009Z,0
2016-08-05T00:48:44.982Z,0
2016-08-05T00:49:44.970Z,0
2016-08-05T00:50:45.004Z,0
2016-08-05T00:51:44.950Z,0
2016-08-05T00:52:44.957Z,0
2016-08-05T00:53:44.958Z,0
2016-08-05T00:54:44.940Z,0
2016-08-05T00:55:44.908Z,0
2016-08-05T00:56:44.935Z,0
2016-08-05T00:57:44.889Z,0
2016-08-05T00:58:44.907Z,0
2016-08-05T00:59:44.885Z,0
2016-08-05T01:00:44.867Z,0
2016-08-05T01:01:44.872Z,0
2016-08-05T01:02:44.829Z,0
2016-08-05T01:03:44.818Z,0
2016-08-05T01:04:44.828Z,0
2016-08-05T01:05:44.821Z,0
2016-08-05T01:06:44.813Z,0
2016-08-05T01:07:44.821Z,0
2016-08-05T01:08:44.798Z,0
2016-08-05T01:09:44.782Z,0
2016-08-05T01:10:45.485Z,0
2016-08-05T01:11:44.754Z,0
2016-08-05T01:12:44.767Z,0
2016-08-05T01:13:44.772Z,0
2016-08-05T01:14:44.751Z,0
2016-08-05T01:15:44.726Z,0
2016-08-05T01:16:44.750Z,0
2016-08-05T01:17:44.706Z,0
2016-08-05T01:18:44.695Z,0
2016-08-05T01:19:44.679Z,0
2016-08-05T01:20:44.693Z,0
2016-08-05T01:21:44.678Z,0
2016-08-05T01:22:44.653Z,0
2016-08-05T01:23:44.629Z,0
2016-08-05T01:24:44.631Z,0
2016-08-05T01:25:44.636Z,0
2016-08-05T01:26:44.622Z,0
2016-08-05T01:27:44.617Z,0
2016-08-05T01:28:44.595Z,0
2016-08-05T01:29:44.604Z,0
2016-08-05T01:30:44.584Z,0
2016-08-05T01:31:44.582Z,0
2016-08-05T01:32:44.576Z,0
2016-08-05T01:33:44.534Z,0
2016-08-05T01:34:44.541Z,0
2016-08-05T01:35:44.542Z,0
2016-08-05T01:36:44.499Z,0
2016-08-05T01:37:44.492Z,0
2016-08-05T01:38:44.503Z,0
2016-08-05T01:39:44.469Z,0
2016-08-05T01:40:44.485Z,0
2016-08-05T01:41:44.475Z,0
2016-08-05T01:42:44.470Z,0
2016-08-05T01:43:44.447Z,0
2016-08-05T01:44:44.473Z,0
2016-08-05T01:45:44.438Z,0
2016-08-05T01:46:45.097Z,0
2016-08-05T01:47:44.571Z,0
2016-08-05T01:48:44.395Z,0
2016-08-05T01:49:44.392Z,0
2016-08-05T01:50:44.371Z,0
2016-08-05T01:51:44.359Z,0
2016-08-05T01:52:44.358Z,0
2016-08-05T01:53:44.348Z,0
2016-08-05T01:54:44.342Z,0
2016-08-05T01:55:44.333Z,0
2016-08-05T01:56:44.333Z,0
2016-08-05T01:57:44.338Z,0
2016-08-05T01:58:44.294Z,0
2016-08-05T01:59:44.288Z,0
2016-08-05T02:00:44.297Z,0
2016-08-05T02:01:44.287Z,0
2016-08-05T02:02:44.265Z,0
2016-08-05T02:03:44.254Z,0
2016-08-05T02:04:44.217Z,0
2016-08-05T02:05:44.228Z,0
2016-08-05T02:06:44.194Z,0
2016-08-05T02:07:44.213Z,0
2016-08-05T02:08:44.223Z,0
2016-08-05T02:09:44.202Z,0
2016-08-05T02:10:44.172Z,0
2016-08-05T02:11:44.879Z,0
2016-08-05T02:12:44.167Z,0
2016-08-05T02:13:44.161Z,0
2016-08-05T02:14:45.561Z,0
2016-08-05T02:15:45.515Z,0
2016-08-05T02:16:44.124Z,0
2016-08-05T02:17:44.105Z,0
2016-08-05T02:18:44.081Z,0
2016-08-05T02:19:44.061Z,0
2016-08-05T02:20:44.743Z,0
2016-08-05T02:21:44.053Z,0
2016-08-05T02:22:44.043Z,0
2016-08-05T02:23:44.697Z,0
2016-08-05T02:24:44.743Z,0
2016-08-05T02:25:44.683Z,0
2016-08-05T02:26:43.982Z,0
2016-08-05T02:27:43.971Z,0
2016-08-05T02:28:45.330Z,0
2016-08-05T02:29:43.933Z,0
2016-08-05T02:30:43.942Z,0
2016-08-05T02:31:44.613Z,0
2016-08-05T02:32:43.928Z,0
2016-08-05T02:33:43.924Z,0
2016-08-05T02:34:44.581Z,0
2016-08-05T02:35:44.553Z,0
2016-08-05T02:36:43.849Z,0
2016-08-05T02:37:43.842Z,0
2016-08-05T02:38:44.554Z,0
2016-08-05T02:39:44.509Z,0
2016-08-05T02:40:45.220Z,0
2016-08-05T02:41:43.773Z,0
2016-08-05T02:42:44.482Z,0
2016-08-05T02:43:44.490Z,0
2016-08-05T02:44:43.750Z,0
2016-08-05T02:45:44.440Z,0
2016-08-05T02:46:43.724Z,0
2016-08-05T02:47:43.872Z,0
2016-08-05T02:48:43.724Z,0
2016-08-05T02:49:44.383Z,0
2016-08-05T02:50:43.700Z,0
2016-08-05T02:51:43.695Z,0
2016-08-05T02:52:43.668Z,0
2016-08-05T02:53:43.657Z,0
2016-08-05T02:54:43.624Z,0
2016-08-05T02:55:43.640Z,0
2016-08-05T02:56:43.625Z,0
2016-08-05T02:57:43.574Z,0
2016-08-05T02:58:43.595Z,0
2016-08-05T02:59:43.581Z,0
2016-08-05T03:00:44.259Z,0
2016-08-05T03:01:43.524Z,0
2016-08-05T03:02:43.547Z,0
2016-08-05T03:03:43.511Z,0
2016-08-05T03:04:44.895Z,0
2016-08-05T03:05:43.508Z,0
2016-08-05T03:06:43.466Z,0
2016-08-05T03:07:43.479Z,0
2016-08-05T03:08:44.159Z,0
2016-08-05T03:09:44.127Z,0
2016-08-05T03:10:43.429Z,0
2016-08-05T03:11:43.421Z,0
2016-08-05T03:12:44.109Z,0
2016-08-05T03:13:43.369Z,0
2016-08-05T03:14:43.378Z,0
2016-08-05T03:15:44.070Z,0
2016-08-05T03:16:44.071Z,0
2016-08-05T03:17:43.329Z,0
2016-08-05T03:18:43.335Z,0
2016-08-05T03:19:44.716Z,0
2016-08-05T03:20:44.029Z,0
2016-08-05T03:21:43.288Z,0
2016-08-05T03:22:43.277Z,0
2016-08-05T03:23:44.672Z,0
2016-08-05T03:24:43.961Z,0
2016-08-05T03:25:43.994Z,0
2016-08-05T03:26:43.932Z,0
2016-08-05T03:27:43.220Z,0
2016-08-05T03:28:43.213Z,0
2016-08-05T03:29:43.895Z,0
2016-08-05T03:30:43.893Z,0
2016-08-05T03:31:43.881Z,0
2016-08-05T03:32:43.865Z,0
2016-08-05T03:33:43.137Z,0
2016-08-05T03:34:43.152Z,0
2016-08-05T03:35:43.819Z,0
2016-08-05T03:36:43.820Z,0
2016-08-05T03:37:44.475Z,0
2016-08-05T03:38:43.086Z,0
2016-08-05T03:39:43.748Z,4
2016-08-05T03:40:43.087Z,4
2016-08-05T03:41:43.040Z,4
2016-08-05T03:42:43.721Z,4
2016-08-05T03:43:43.001Z,4
2016-08-05T03:44:42.994Z,4
2016-08-05T03:45:43.007Z,8
2016-08-05T03:46:42.971Z,8
2016-08-05T03:47:42.991Z,8
2016-08-05T03:48:43.690Z,8
2016-08-05T03:49:42.967Z,12
2016-08-05T03:50:42.911Z,12
2016-08-05T03:51:43.634Z,16
2016-08-05T03:52:42.920Z,16
2016-08-05T03:53:43.603Z,16
2016-08-05T03:54:43.593Z,16
2016-08-05T03:56:42.853Z,16
2016-08-05T03:57:42.862Z,16
2016-08-05T03:58:42.859Z,16
2016-08-05T03:59:43.575Z,16
2016-08-05T04:00:42.841Z,20
2016-08-05T04:01:42.823Z,20
2016-08-05T04:02:43.489Z,20
2016-08-05T04:03:43.484Z,24
2016-08-05T04:04:42.774Z,24
2016-08-05T04:05:42.776Z,32
2016-08-05T04:06:43.459Z,36
2016-08-05T04:07:42.746Z,40
2016-08-05T04:08:42.743Z,44
2016-08-05T04:09:43.413Z,56
2016-08-05T04:11:43.426Z,60
2016-08-05T04:12:42.658Z,64
2016-08-05T04:13:42.686Z,76
2016-08-05T04:14:44.028Z,80
2016-08-05T04:15:43.336Z,84
2016-08-05T04:16:42.633Z,64
2016-08-05T04:17:43.990Z,76
2016-08-05T04:18:42.627Z,92
2016-08-05T04:19:42.612Z,116
2016-08-05T04:20:42.587Z,136
2016-08-05T04:21:42.564Z,136
2016-08-05T04:22:42.561Z,148
2016-08-05T04:23:42.546Z,164
2016-08-05T04:24:42.547Z,168
2016-08-05T04:25:43.227Z,176
2016-08-05T04:26:43.212Z,188
2016-08-05T04:27:43.206Z,196
2016-08-05T04:28:43.206Z,188
2016-08-05T04:29:42.495Z,204
2016-08-05T04:30:42.459Z,204
2016-08-05T04:31:43.178Z,212
2016-08-05T04:32:43.162Z,224
2016-08-05T04:33:43.134Z,228
2016-08-05T04:34:42.420Z,220
2016-08-05T04:35:43.824Z,228
2016-08-05T04:36:43.110Z,272
2016-08-05T04:37:43.111Z,276
2016-08-05T04:38:43.097Z,284
2016-08-05T04:39:42.390Z,268
2016-08-05T04:40:42.380Z,256
2016-08-05T04:41:43.028Z,256
2016-08-05T04:42:44.441Z,284
2016-08-05T04:43:42.320Z,284
2016-08-05T04:44:43.019Z,280
2016-08-05T04:45:42.984Z,284
2016-08-05T04:46:43.000Z,308
2016-08-05T04:47:43.001Z,328
2016-08-05T04:48:42.314Z,308
2016-08-05T04:49:42.946Z,328
2016-08-05T04:50:42.248Z,352
2016-08-05T04:51:42.929Z,396
2016-08-05T04:52:42.223Z,444
2016-08-05T04:53:43.600Z,464
2016-08-05T04:54:42.189Z,488
2016-08-05T04:55:42.176Z,540
2016-08-05T04:56:42.885Z,576
2016-08-05T04:57:42.865Z,604
2016-08-05T04:58:42.820Z,624
2016-08-05T04:59:42.157Z,636
2016-08-05T05:00:42.117Z,704
2016-08-05T05:01:43.524Z,764
2016-08-05T05:02:42.813Z,832
2016-08-05T05:03:42.083Z,868
2016-08-05T05:04:42.061Z,900
2016-08-05T05:05:42.032Z,912
2016-08-05T05:06:42.016Z,920
2016-08-05T05:07:42.043Z,876
2016-08-05T05:08:42.028Z,872
2016-08-05T05:09:42.004Z,840
2016-08-05T05:10:41.974Z,836
2016-08-05T05:11:41.974Z,852
2016-08-05T05:12:41.946Z,912
2016-08-05T05:13:41.949Z,920
2016-08-05T05:14:41.964Z,928
2016-08-05T05:15:41.929Z,940
2016-08-05T05:16:41.918Z,940
2016-08-05T05:17:41.917Z,908
2016-08-05T05:18:41.880Z,932
2016-08-05T05:19:41.886Z,1024
2016-08-05T05:20:41.870Z,1112
2016-08-05T05:21:41.858Z,1140
2016-08-05T05:22:41.827Z,1148
2016-08-05T05:23:41.853Z,1156
2016-08-05T05:24:41.792Z,1152
2016-08-05T05:25:41.805Z,1212
2016-08-05T05:26:41.787Z,1260
2016-08-05T05:27:41.814Z,1308
2016-08-05T05:28:41.783Z,1332
2016-08-05T05:29:41.753Z,1352
2016-08-05T05:30:41.720Z,1324
2016-08-05T05:31:41.736Z,1312
2016-08-05T05:32:41.721Z,1264
2016-08-05T05:33:41.719Z,1220
2016-08-05T05:34:41.702Z,1224
2016-08-05T05:35:41.690Z,1200
2016-08-05T05:36:41.678Z,1260
2016-08-05T05:37:41.683Z,1296
2016-08-05T05:38:41.653Z,1288
2016-08-05T05:39:41.633Z,1300
2016-08-05T05:40:41.627Z,1268
2016-08-05T05:41:41.633Z,1228
2016-08-05T05:42:41.630Z,1224
2016-08-05T05:43:41.579Z,1244
2016-08-05T05:44:41.610Z,1292
2016-08-05T05:45:41.578Z,1248
2016-08-05T05:46:41.554Z,1216
2016-08-05T05:47:41.531Z,1284
2016-08-05T05:48:41.607Z,1308
2016-08-05T05:49:41.549Z,1316
2016-08-05T05:50:41.516Z,1508
2016-08-05T05:51:41.506Z,1764
2016-08-05T05:52:41.494Z,2080
2016-08-05T05:53:41.479Z,2384
2016-08-05T05:54:41.449Z,2708
2016-08-05T05:55:41.473Z,3100
2016-08-05T05:56:41.447Z,3104
2016-08-05T05:57:41.431Z,3148
2016-08-05T05:58:41.458Z,3408
2016-08-05T05:59:41.400Z,3096
2016-08-05T06:00:42.103Z,2844
2016-08-05T06:01:41.377Z,2760
2016-08-05T06:02:41.372Z,2596
2016-08-05T06:03:41.354Z,2324
2016-08-05T06:04:41.366Z,2104
2016-08-05T06:05:41.379Z,2084
2016-08-05T06:06:41.354Z,2208
2016-08-05T06:07:41.345Z,2504
2016-08-05T06:08:41.311Z,2708
2016-08-05T06:09:41.308Z,3020
2016-08-05T06:10:41.308Z,3420
2016-08-05T06:11:41.297Z,3496
2016-08-05T06:12:41.279Z,3376
2016-08-05T06:13:41.248Z,3120
2016-08-05T06:14:41.265Z,2860
2016-08-05T06:15:41.217Z,2564
2016-08-05T06:16:41.941Z,2468
2016-08-05T06:17:41.223Z,2424
2016-08-05T06:18:41.221Z,2324
2016-08-05T06:19:41.201Z,2440
2016-08-05T06:20:41.196Z,2800
2016-08-05T06:21:41.193Z,3492
2016-08-05T06:22:41.174Z,4276
2016-08-05T06:23:41.135Z,5348
2016-08-05T06:24:41.171Z,6136
2016-08-05T06:25:41.122Z,6148
2016-08-05T06:26:41.111Z,5896
2016-08-05T06:27:41.111Z,5688
2016-08-05T06:28:41.803Z,5216
2016-08-05T06:29:41.110Z,4636
2016-08-05T06:30:41.098Z,4252
2016-08-05T06:31:41.066Z,3872
2016-08-05T06:32:41.064Z,3600
2016-08-05T06:33:41.046Z,3476
2016-08-05T06:34:41.038Z,3648
2016-08-05T06:35:41.013Z,3412
2016-08-05T06:36:41.012Z,3368
2016-08-05T06:37:41.013Z,3044
2016-08-05T06:38:40.982Z,2752
2016-08-05T06:39:40.979Z,2868
2016-08-05T06:40:40.986Z,2924
2016-08-05T06:41:40.975Z,2912
2016-08-05T06:42:40.948Z,2916
2016-08-05T06:43:40.946Z,2792
2016-08-05T06:44:40.914Z,2792
2016-08-05T06:45:40.900Z,2684
2016-08-05T06:46:40.907Z,2600
2016-08-05T06:47:40.885Z,2636
2016-08-05T06:48:40.982Z,2588
2016-08-05T06:49:40.875Z,2648
2016-08-05T06:50:40.873Z,2716
2016-08-05T06:51:40.836Z,2792
2016-08-05T06:52:40.823Z,2896
2016-08-05T06:53:40.814Z,3148
2016-08-05T06:54:40.791Z,3308
2016-08-05T06:55:40.800Z,3444
2016-08-05T06:56:40.783Z,3680
2016-08-05T06:57:40.764Z,3612
2016-08-05T06:58:40.768Z,3908
2016-08-05T06:59:40.741Z,3848
2016-08-05T07:00:40.729Z,3572
2016-08-05T07:01:40.696Z,3352
2016-08-05T07:02:40.723Z,3436
2016-08-05T07:03:40.710Z,3392
2016-08-05T07:04:40.699Z,3500
2016-08-05T07:05:40.667Z,3284
2016-08-05T07:06:40.655Z,3344
2016-08-05T07:07:40.679Z,3496
2016-08-05T07:08:40.634Z,3632
2016-08-05T07:09:40.641Z,3956
2016-08-05T07:10:40.614Z,4384
2016-08-05T07:11:40.614Z,4260
2016-08-05T07:12:40.601Z,3824
2016-08-05T07:13:40.593Z,3636
2016-08-05T07:14:40.554Z,3968
2016-08-05T07:15:40.555Z,4304
2016-08-05T07:16:40.575Z,3548
2016-08-05T07:17:41.241Z,3668
2016-08-05T07:18:40.525Z,3872
2016-08-05T07:19:40.521Z,3436
2016-08-05T07:20:40.528Z,3680
2016-08-05T07:21:40.512Z,3980
2016-08-05T07:22:40.483Z,4052
2016-08-05T07:23:40.482Z,4176
2016-08-05T07:24:40.485Z,4252
2016-08-05T07:25:40.461Z,4488
2016-08-05T07:26:40.432Z,4316
2016-08-05T07:27:40.456Z,4400
2016-08-05T07:28:40.429Z,4404
2016-08-05T07:29:40.419Z,4212
2016-08-05T07:30:40.379Z,4088
2016-08-05T07:31:40.405Z,4176
2016-08-05T07:32:40.360Z,4184
2016-08-05T07:33:40.357Z,4300
2016-08-05T07:34:40.323Z,4616
2016-08-05T07:35:40.321Z,4552
2016-08-05T07:36:40.331Z,4368
2016-08-05T07:37:40.335Z,4616
2016-08-05T07:38:40.292Z,4828
2016-08-05T07:39:40.303Z,4228
2016-08-05T07:40:40.262Z,3952
2016-08-05T07:41:40.277Z,3368
2016-08-05T07:42:40.238Z,3460
2016-08-05T07:43:40.228Z,3452
2016-08-05T07:44:40.261Z,3308
2016-08-05T07:45:40.197Z,3680
2016-08-05T07:46:40.196Z,3448
2016-08-05T07:47:40.200Z,3184
2016-08-05T07:48:40.166Z,2996
2016-08-05T07:49:40.190Z,2956
2016-08-05T07:50:40.140Z,2616
2016-08-05T07:51:40.150Z,2600
2016-08-05T07:52:40.146Z,2780
2016-08-05T07:53:40.134Z,3144
2016-08-05T07:54:40.802Z,3616
2016-08-05T07:55:40.097Z,4028
2016-08-05T07:56:40.099Z,3980
2016-08-05T07:57:40.083Z,3720
2016-08-05T07:58:40.068Z,3956
2016-08-05T07:59:40.076Z,3600
2016-08-05T08:00:40.016Z,3556
2016-08-05T08:01:40.012Z,3784
2016-08-05T08:02:40.002Z,3828
2016-08-05T08:03:40.017Z,3928
2016-08-05T08:04:39.982Z,3972
2016-08-05T08:05:39.972Z,4168
2016-08-05T08:06:39.954Z,4100
2016-08-05T08:07:39.957Z,4524
2016-08-05T08:08:39.930Z,4816
2016-08-05T08:09:39.918Z,4676
2016-08-05T08:10:39.908Z,4376
2016-08-05T08:11:39.912Z,4400
2016-08-05T08:12:39.884Z,4168
2016-08-05T08:13:39.890Z,4064
2016-08-05T08:14:39.878Z,4136
2016-08-05T08:15:39.866Z,4260
2016-08-05T08:16:39.863Z,4276
2016-08-05T08:17:39.835Z,4268
2016-08-05T08:18:48.976Z,4280
2016-08-05T08:19:39.815Z,4512
2016-08-05T08:20:39.789Z,4800
2016-08-05T08:21:39.761Z,4708
2016-08-05T08:22:39.785Z,4784
2016-08-05T08:23:39.780Z,4980
2016-08-05T08:24:39.738Z,5520
2016-08-05T08:25:39.712Z,5272
2016-08-05T08:26:39.729Z,5188
2016-08-05T08:27:39.706Z,5244
2016-08-05T08:28:39.702Z,5320
2016-08-05T08:29:39.696Z,5320
2016-08-05T08:30:39.693Z,5304
2016-08-05T08:31:39.658Z,5304
2016-08-05T08:32:40.365Z,5396
2016-08-05T08:33:39.653Z,5580
2016-08-05T08:34:39.631Z,4912
2016-08-05T08:35:39.623Z,4896
2016-08-05T08:36:39.614Z,5444
2016-08-05T08:37:39.597Z,5620
2016-08-05T08:38:39.598Z,5604
2016-08-05T08:39:40.291Z,5552
2016-08-05T08:40:39.567Z,5744
2016-08-05T08:41:39.561Z,5744
2016-08-05T08:42:40.262Z,5828
2016-08-05T08:43:39.537Z,5876
2016-08-05T08:44:39.517Z,5960
2016-08-05T08:45:39.518Z,6056
2016-08-05T08:46:39.500Z,6252
2016-08-05T08:47:39.492Z,6044
2016-08-05T08:48:39.504Z,6008
2016-08-05T08:49:39.471Z,5980
2016-08-05T08:50:39.443Z,6412
2016-08-05T08:51:39.434Z,6136
2016-08-05T08:52:39.424Z,6456
2016-08-05T08:53:39.430Z,6900
2016-08-05T08:54:39.401Z,6000
2016-08-05T08:55:39.399Z,5844
2016-08-05T08:56:39.384Z,5856
2016-08-05T08:57:39.365Z,5644
2016-08-05T08:58:39.380Z,5620
2016-08-05T08:59:39.343Z,5760
2016-08-05T09:00:39.371Z,6112
2016-08-05T09:01:39.342Z,6124
2016-08-05T09:02:39.320Z,5944
2016-08-05T09:03:39.312Z,5932
2016-08-05T09:04:39.296Z,6020
2016-08-05T09:05:39.275Z,5672
2016-08-05T09:06:39.294Z,5780
2016-08-05T09:07:39.266Z,5992
2016-08-05T09:08:39.253Z,5992
2016-08-05T09:09:39.247Z,6088
2016-08-05T09:10:39.216Z,5880
2016-08-05T09:11:39.198Z,5792
2016-08-05T09:12:39.192Z,5852
2016-08-05T09:13:39.183Z,6240
2016-08-05T09:14:39.168Z,5872
2016-08-05T09:15:39.169Z,5840
2016-08-05T09:16:39.141Z,6016
2016-08-05T09:17:39.148Z,6008
2016-08-05T09:18:39.133Z,6112
2016-08-05T09:19:39.123Z,6220
2016-08-05T09:20:39.107Z,5924
2016-08-05T09:21:39.085Z,5872
2016-08-05T09:22:39.093Z,5848
2016-08-05T09:23:39.035Z,5732
2016-08-05T09:24:39.037Z,5804
2016-08-05T09:25:39.041Z,5896
2016-08-05T09:26:39.038Z,5140
2016-08-05T09:27:39.026Z,5340
2016-08-05T09:28:39.011Z,5608
2016-08-05T09:29:39.702Z,5580
2016-08-05T09:30:38.970Z,5656
2016-08-05T09:31:38.958Z,5872
2016-08-05T09:32:38.955Z,5796
2016-08-05T09:33:38.955Z,5988
2016-08-05T09:34:38.952Z,5620
2016-08-05T09:35:38.934Z,5752
2016-08-05T09:36:38.904Z,6028
2016-08-05T09:37:38.882Z,6060
2016-08-05T09:38:39.572Z,5856
2016-08-05T09:39:38.892Z,6620
2016-08-05T09:40:38.855Z,7016
2016-08-05T09:41:38.845Z,6660
2016-08-05T09:42:38.811Z,6736
2016-08-05T09:43:38.791Z,7172
2016-08-05T09:44:38.815Z,7208
2016-08-05T09:45:38.815Z,6376
2016-08-05T09:46:38.775Z,6364
2016-08-05T09:47:38.780Z,6404
2016-08-05T09:48:38.748Z,6656
2016-08-05T09:49:38.754Z,6980
2016-08-05T09:50:38.744Z,6956
2016-08-05T09:51:38.734Z,6872
2016-08-05T09:52:38.729Z,6744
2016-08-05T09:53:38.682Z,6812
2016-08-05T09:54:38.687Z,6648
2016-08-05T09:55:38.648Z,6436
2016-08-05T09:57:38.644Z,6340
2016-08-05T09:58:38.630Z,6420
2016-08-05T09:59:38.624Z,6164
2016-08-05T10:00:38.626Z,6156
2016-08-05T10:01:38.581Z,6820
2016-08-05T10:02:38.606Z,6596
2016-08-05T10:03:38.578Z,6300
2016-08-05T10:04:38.527Z,6324
2016-08-05T10:05:38.547Z,6340
2016-08-05T10:06:38.526Z,6336
2016-08-05T10:07:38.514Z,6524
2016-08-05T10:08:38.497Z,6480
2016-08-05T10:09:38.504Z,6492
2016-08-05T10:10:39.192Z,6376
2016-08-05T10:12:38.456Z,6196
2016-08-05T10:13:38.451Z,6144
2016-08-05T10:14:38.451Z,6068
2016-08-05T10:15:38.427Z,6232
2016-08-05T10:16:38.415Z,6204
2016-08-05T10:17:38.419Z,6128
2016-08-05T10:18:38.372Z,6148
2016-08-05T10:19:38.344Z,5932
2016-08-05T10:20:38.329Z,5800
2016-08-05T10:21:38.328Z,5792
2016-08-05T10:22:39.009Z,5624
2016-08-05T10:23:38.297Z,5532
2016-08-05T10:24:38.329Z,5664
2016-08-05T10:25:38.286Z,5672
2016-08-05T10:27:38.289Z,5944
2016-08-05T10:28:38.262Z,5832
2016-08-05T10:29:38.253Z,5920
2016-08-05T10:30:38.230Z,5864
2016-08-05T10:31:38.224Z,5964
2016-08-05T10:32:38.179Z,5864
2016-08-05T10:33:38.190Z,5884
2016-08-05T10:34:38.159Z,5728
2016-08-05T10:35:38.167Z,5652
2016-08-05T10:36:38.149Z,5460
2016-08-05T10:37:38.135Z,5284
2016-08-05T10:38:38.122Z,5316
2016-08-05T10:39:38.112Z,5356
2016-08-05T10:40:38.106Z,5380
2016-08-05T10:42:38.081Z,5268
2016-08-05T10:43:38.050Z,5424
2016-08-05T10:44:38.054Z,5592
2016-08-05T10:45:38.049Z,5740
2016-08-05T10:46:38.027Z,6004
2016-08-05T10:47:38.022Z,6184
2016-08-05T10:48:38.012Z,6052
2016-08-05T10:49:38.201Z,5832
2016-08-05T10:50:37.984Z,5852
2016-08-05T10:51:37.958Z,5568
2016-08-05T10:52:37.953Z,5584
2016-08-05T10:53:37.954Z,6020
2016-08-05T10:54:37.951Z,6312
2016-08-05T10:55:37.927Z,6196
2016-08-05T10:56:37.897Z,6332
2016-08-05T10:57:37.900Z,6700
2016-08-05T10:58:37.858Z,7016
2016-08-05T10:59:37.860Z,6872
2016-08-05T11:00:37.853Z,6796
2016-08-05T11:01:37.845Z,6636
2016-08-05T11:02:37.845Z,6780
2016-08-05T11:03:37.815Z,6676
2016-08-05T11:04:37.818Z,6864
2016-08-05T11:05:37.795Z,6976
2016-08-05T11:06:37.777Z,7072
2016-08-05T11:07:37.774Z,6920
2016-08-05T11:08:37.762Z,6816
2016-08-05T11:09:37.733Z,6632
2016-08-05T11:10:37.731Z,6636
2016-08-05T11:11:37.741Z,6752
2016-08-05T11:12:37.739Z,6532
2016-08-05T11:13:37.687Z,6588
2016-08-05T11:14:37.713Z,6476
2016-08-05T11:15:37.667Z,6584
2016-08-05T11:16:37.643Z,6524
2016-08-05T11:17:37.623Z,6540
2016-08-05T11:18:37.638Z,6504
2016-08-05T11:19:37.615Z,6284
2016-08-05T11:20:37.615Z,6120
2016-08-05T11:21:37.611Z,6076
2016-08-05T11:22:37.602Z,6092
2016-08-05T11:23:37.569Z,6224
2016-08-05T11:24:37.553Z,6360
2016-08-05T11:25:37.561Z,6200
2016-08-05T11:26:37.551Z,5812
2016-08-05T11:27:37.530Z,5600
2016-08-05T11:28:37.516Z,5692
2016-08-05T11:29:37.499Z,5588
2016-08-05T11:30:37.500Z,5512
2016-08-05T11:31:37.476Z,5596
2016-08-05T11:32:37.461Z,5604
2016-08-05T11:33:37.463Z,5776
2016-08-05T11:34:37.445Z,5984
2016-08-05T11:35:37.430Z,6208
2016-08-05T11:36:37.404Z,6328
2016-08-05T11:37:37.414Z,6224
2016-08-05T11:38:37.404Z,6132
2016-08-05T11:39:37.381Z,6060
2016-08-05T11:40:37.393Z,6252
2016-08-05T11:41:37.336Z,6380
2016-08-05T11:42:37.343Z,6296
2016-08-05T11:43:37.330Z,6220
2016-08-05T11:44:37.329Z,6212
2016-08-05T11:45:37.298Z,6324
2016-08-05T11:46:37.302Z,6344
2016-08-05T11:47:37.275Z,6452
2016-08-05T11:48:37.292Z,6564
2016-08-05T11:49:37.491Z,6572
2016-08-05T11:50:37.257Z,6532
2016-08-05T11:51:37.929Z,6540
2016-08-05T11:52:37.246Z,6640
2016-08-05T11:53:37.213Z,6924
2016-08-05T11:54:37.197Z,7068
2016-08-05T11:55:37.892Z,6940
2016-08-05T11:56:37.175Z,6908
2016-08-05T11:57:37.155Z,6556
2016-08-05T11:58:37.144Z,6184
2016-08-05T11:59:37.143Z,5920
2016-08-05T12:00:37.147Z,6164
2016-08-05T12:01:37.145Z,6504
2016-08-05T12:02:37.087Z,7036
2016-08-05T12:03:37.099Z,6960
2016-08-05T12:04:37.062Z,7048
2016-08-05T12:05:37.084Z,6908
2016-08-05T12:06:37.059Z,6836
2016-08-05T12:07:37.062Z,6660
2016-08-05T12:08:37.051Z,6752
2016-08-05T12:09:37.008Z,6716
2016-08-05T12:10:37.030Z,6784
2016-08-05T12:11:36.992Z,7056
2016-08-05T12:12:36.999Z,7448
2016-08-05T12:13:36.990Z,7524
2016-08-05T12:14:36.986Z,7092
2016-08-05T12:15:36.965Z,6552
2016-08-05T12:16:36.955Z,6276
2016-08-05T12:17:37.652Z,6024
2016-08-05T12:18:36.938Z,5692
2016-08-05T12:19:36.918Z,5276
2016-08-05T12:20:36.900Z,5212
2016-08-05T12:21:36.879Z,5420
2016-08-05T12:22:36.889Z,5544
2016-08-05T12:23:36.892Z,5584
2016-08-05T12:24:36.871Z,5820
2016-08-05T12:25:36.853Z,6104
2016-08-05T12:26:36.827Z,6588
2016-08-05T12:27:36.844Z,6840
2016-08-05T12:28:36.824Z,6828
2016-08-05T12:29:36.803Z,6680
2016-08-05T12:30:36.795Z,6740
2016-08-05T12:31:36.794Z,6448
2016-08-05T12:32:36.752Z,5832
2016-08-05T12:33:36.755Z,5516
2016-08-05T12:34:36.783Z,5604
2016-08-05T12:35:36.737Z,6116
2016-08-05T12:36:36.711Z,6616
2016-08-05T12:37:36.728Z,7000
2016-08-05T12:38:36.690Z,7056
2016-08-05T12:39:36.685Z,7260
2016-08-05T12:40:36.687Z,7668
2016-08-05T12:41:36.646Z,7652
2016-08-05T12:42:36.629Z,7692
2016-08-05T12:43:36.647Z,7664
2016-08-05T12:44:36.644Z,7596
2016-08-05T12:45:36.622Z,7616
2016-08-05T12:46:36.617Z,7280
2016-08-05T12:47:36.599Z,7144
2016-08-05T12:48:36.580Z,6944
2016-08-05T12:49:36.887Z,6980
2016-08-05T12:50:36.574Z,6884
2016-08-05T12:51:36.559Z,7000
2016-08-05T12:52:36.565Z,7156
2016-08-05T12:53:36.532Z,7116
2016-08-05T12:54:36.500Z,7096
2016-08-05T12:55:36.517Z,7236
2016-08-05T12:56:36.493Z,7216
2016-08-05T12:57:36.484Z,6880
2016-08-05T12:58:36.482Z,6584
2016-08-05T12:59:36.515Z,6620
2016-08-05T13:00:36.443Z,6632
2016-08-05T13:01:36.432Z,6824
2016-08-05T13:02:36.454Z,6924
2016-08-05T13:03:36.440Z,6712
2016-08-05T13:04:36.417Z,6536
2016-08-05T13:05:36.385Z,6580
2016-08-05T13:06:36.392Z,6328
2016-08-05T13:07:36.371Z,5828
2016-08-05T13:08:36.375Z,5424
2016-08-05T13:09:36.345Z,5156
2016-08-05T13:10:36.335Z,4952
2016-08-05T13:11:36.340Z,4904
2016-08-05T13:12:36.332Z,4824
2016-08-05T13:13:36.295Z,4716
2016-08-05T13:14:36.302Z,4676
2016-08-05T13:15:36.258Z,4548
2016-08-05T13:16:36.280Z,4364
2016-08-05T13:17:36.262Z,4280
2016-08-05T13:18:36.265Z,4240
2016-08-05T13:19:36.243Z,4264
2016-08-05T13:20:36.219Z,4476
2016-08-05T13:21:36.217Z,4608
2016-08-05T13:22:36.221Z,4764
2016-08-05T13:23:36.194Z,4936
2016-08-05T13:24:36.194Z,4964
2016-08-05T13:25:36.186Z,5100
2016-08-05T13:26:36.161Z,5444
2016-08-05T13:27:36.152Z,5652
2016-08-05T13:28:36.840Z,5868
2016-08-05T13:29:36.120Z,6044
2016-08-05T13:30:36.124Z,6028
2016-08-05T13:31:36.097Z,6048
2016-08-05T13:32:36.102Z,5948
2016-08-05T13:33:36.099Z,5952
2016-08-05T13:34:36.071Z,6044
2016-08-05T13:35:36.049Z,6000
2016-08-05T13:36:36.031Z,5992
2016-08-05T13:37:36.034Z,6024
2016-08-05T13:38:36.031Z,5984
2016-08-05T13:39:36.050Z,5940
2016-08-05T13:40:36.005Z,5892
2016-08-05T13:41:35.993Z,5868
2016-08-05T13:42:35.996Z,5864
2016-08-05T13:43:35.994Z,5868
2016-08-05T13:44:35.955Z,5828
2016-08-05T13:45:35.933Z,5796
2016-08-05T13:46:35.929Z,5796
2016-08-05T13:47:35.935Z,5720
2016-08-05T13:48:35.922Z,5620
2016-08-05T13:49:35.934Z,5556
2016-08-05T13:50:35.906Z,5472
2016-08-05T13:51:35.888Z,5376
2016-08-05T13:52:35.885Z,5308